Hvidovre, Denmark
Current Conditions -  °F | °C
As of 2:50 PM on Saturday 25 Oct 2014 (Local Time) from EKCH Reporting Station
Broken Clouds Broken Clouds  
Wind Chill: 52°   Ceiling: 900
Heat Index: 52°   Visibility: 4mi
Dew Point: 50°   Wind: 14mph
Humidity: 94%   Direction: 210°SSW
Pressure: 30"   Gusts: NA
Location:  55.66°N, 12.47°E
Report Text: EKCH 251250Z 21012KT 7000 FEW007 BKN009 11/10 Q1016 BECMG4000
Loading
Personal Weather Stations






























Interactive Weather Map New forecast layout! Learn more

10-Day Weather Forecast

Advertisements
Track Severe Weather on mobile